Stella Ada — 9V9082 — position and weather

sailwx.info

Track history (hours):
 
Tides and Currents Weather Stations Pressure Air Temp Water Temp Dewpoint Dewpoint Depression Visibility Wind Speed Wind Dir Waves Ship Positions

Stella Ada

Last reported at 2015-May-05 08:33 UTC. Time now 2015-May-05 09:12 UTC.
Position N 29°47' E 123°13'.

Length 296 m; draft 18 m.

Type: Cargo ship. MMSI: 566089000.

Date/timePositionNaut miles runAvg speedWind from/ knotsBaromVisibWave heightAir tempDewpointWater temp
2015-May-05 08:33N 29°47' E 123°13'3410.6
2015-May-05 05:22N 29°16' E 122°59'1011.4
2015-May-05 04:32N 29°07' E 122°54'40311.4
2015-May-03 17:13N 22°57' E 119°54'710.4
2015-May-03 16:33N 22°50' E 119°55'1311.3
2015-May-03 15:22N 22°37' E 119°55'1012.3
2015-May-03 14:33N 22°27' E 119°55'1212.1
2015-May-03 13:32N 22°15' E 119°55'1111.4
2015-May-03 12:33N 22°03' E 119°55'  
Track history (hours):
 
Tides and Currents Weather Stations Pressure Air Temp Water Temp Dewpoint Dewpoint Depression Visibility Wind Speed Wind Dir Waves Ship Positions

Stella Ada

Last reported at 2015-May-05 08:33 UTC. Time now 2015-May-05 09:12 UTC.
Position N 29°47' E 123°13'.

Length 296 m; draft 18 m.

Type: Cargo ship. MMSI: 566089000.

Date/timePositionNaut miles runAvg speedWind from/ knotsBaromVisibWave heightAir tempDewpointWater temp
2015-May-05 08:33N 29°47' E 123°13'3410.6
2015-May-05 05:22N 29°16' E 122°59'1011.4
2015-May-05 04:32N 29°07' E 122°54'40311.4
2015-May-03 17:13N 22°57' E 119°54'710.4
2015-May-03 16:33N 22°50' E 119°55'1311.3
2015-May-03 15:22N 22°37' E 119°55'1012.3
2015-May-03 14:33N 22°27' E 119°55'1212.1
2015-May-03 13:32N 22°15' E 119°55'1111.4
2015-May-03 12:33N 22°03' E 119°55'  

Dump ship's entire track history